• Join FlightAware (Why Join?)
  • Login
  • US Flag 
08:49PM EDT


 

Airport Tracker/Info


-or-


 

Live Flight TrackerFlight Track Log ✈ ASQ5312 ✈ 24-Apr-2012 ✈ KATL - KDSM

Flight Track Log - Related Links

Times and Time Zones

All times are in EDT time to prevent confusion due to time zone crossing. See the ASQ5312 flight status page for this flight to view local times or setup timezone preferences in your user account.

Time Position Orientation Groundspeed Altitude Reporting Facility
EDT Latitude Longitude Course Direction KTS MPH feet Rate Location/Type
02:27PM 33.6557 -84.4446 287° West  Level FlightAware Approximate
02:28PM 33.6833 -84.5500 331° Northwest 243 280 5,700  Level Atlanta TRACON
02:29PM 33.7333 -84.5833 357° North 259 298 8,400 1,920 Climbing Atlanta TRACON
02:31PM 33.9286 -84.5944 344° North 295 339 12,000 1,620 Climbing Atlanta Center
02:32PM 34.0161 -84.6253 342° North 322 371 13,900 1,740 Climbing Atlanta Center
02:33PM 34.1058 -84.6608 345° North 327 376 15,500 1,320 Climbing Atlanta Center
02:34PM 34.2017 -84.6919 341° North 345 397 16,600 1,320 Climbing Atlanta Center
02:35PM 34.2953 -84.7303 339° North 345 397 18,200 1,500 Climbing Atlanta Center
02:36PM 34.3889 -84.7739 341° North 350 403 19,700 1,320 Climbing Atlanta Center
02:37PM 34.4828 -84.8125 340° North 350 403 20,900 1,080 Climbing Atlanta Center
02:38PM 34.5658 -84.8486 339° North 350 403 21,900 1,200 Climbing Atlanta Center
02:39PM 34.6678 -84.8950 339° North 350 403 23,300 1,680 Climbing Atlanta Center
02:40PM 34.7572 -84.9364 340° North 350 403 25,300 1,500 Climbing Atlanta Center
02:41PM 34.8447 -84.9753 340° North 345 397 26,400 1,020 Climbing Atlanta Center
02:42PM 34.9342 -85.0142 340° North 345 397 27,400 900 Climbing Atlanta Center
02:43PM 35.0214 -85.0533 339° North 340 391 28,200 780 Climbing Atlanta Center
02:44PM 35.1108 -85.0950 309° West 340 391 29,000 780 Climbing Atlanta Center
02:45PM 35.1725 -85.1872 309° West 333 383 29,800 600 Climbing Atlanta Center
02:47PM 35.2883 -85.3611 309° West 367 422 30,800 480 Climbing Memphis Center
02:48PM 35.3506 -85.4567 309° West 367 422 31,300 480 Climbing Memphis Center
02:49PM 35.4150 -85.5550 308° West 367 422 31,800 480 Climbing Memphis Center
02:50PM 35.4772 -85.6533 307° West 367 422 32,300 480 Climbing Memphis Center
02:51PM 35.5394 -85.7544 310° West 373 429 32,800 480 Climbing Memphis Center
02:52PM 35.6056 -85.8528 309° West 373 429 33,300 480 Climbing Memphis Center
02:53PM 35.6628 -85.9392 311° West 380 437 33,800 480 Climbing Memphis Center
02:54PM 35.7308 -86.0353 325° Northwest 380 437 34,300 480 Climbing Memphis Center
02:55PM 35.8106 -86.1053 323° Northwest 352 405 34,800 480 Climbing Memphis Center
02:56PM 35.8881 -86.1781 318° Northwest 352 405 35,300 480 Climbing Memphis Center
02:57PM 35.9617 -86.2614 317° Northwest 352 405 35,800 300 Climbing Memphis Center
02:58PM 36.0397 -86.3525 316° Northwest 359 413 36,000 60 Climbing Memphis Center
02:59PM 36.1156 -86.4439 316° Northwest 365 420 36,000  Level Memphis Center
03:00PM 36.1892 -86.5331 317° Northwest 365 420 36,000  Level Memphis Center
03:01PM 36.2647 -86.6194 316° Northwest 371 427 36,000  Level Memphis Center
03:02PM 36.3383 -86.7089 315° West 371 427 36,000  Level Memphis Center
03:03PM 36.4075 -86.7961 319° Northwest 371 427 36,000  Level Memphis Center
03:04PM 36.4872 -86.8828 315° West 371 427 36,000  Level Memphis Center
03:05PM 36.5564 -86.9703 315° West 370 426 36,000  Level Memphis Center
03:06PM 36.6275 -87.0578 316° Northwest 370 426 36,000  Level Memphis Center
03:07PM 36.7006 -87.1453 316° Northwest 370 426 36,000  Level Memphis Center
03:08PM 36.7717 -87.2306 316° Northwest 370 426 36,000  Level Memphis Center
03:09PM 36.8447 -87.3186 314° West 370 426 36,000  Level Memphis Center
03:10PM 36.9133 -87.4067 316° Northwest 363 418 36,000  Level Memphis Center
03:11PM 36.9842 -87.4925 316° Northwest 363 418 36,000  Level Memphis Center
03:12PM 37.0592 -87.5833 315° West 363 418 36,000  Level Memphis Center
03:13PM 37.1300 -87.6719 316° Northwest 363 418 36,000  Level Memphis Center
03:14PM 37.1942 -87.7503 315° West 363 418 36,000  Level Memphis Center
03:15PM 37.2647 -87.8392 315° West 368 423 36,000  Level Memphis Center
03:19PM 37.5189 -88.1611 316° Northwest 377 434 36,000  Level Kansas City Center
03:20PM 37.5903 -88.2469 315° West 377 434 36,000  Level Kansas City Center
03:21PM 37.6639 -88.3403 315° West 372 428 36,000  Level Kansas City Center
03:22PM 37.7331 -88.4292 314° West 367 422 36,000  Level Kansas City Center
03:23PM 37.8047 -88.5233 315° West 367 422 36,000  Level Kansas City Center
03:24PM 37.8781 -88.6150 315° West 367 422 36,000  Level Kansas City Center
03:25PM 37.9492 -88.7042 314° West 367 422 36,000  Level Kansas City Center
03:26PM 38.0206 -88.7986 315° West 367 422 36,000  Level Kansas City Center
03:27PM 38.0939 -88.8908 315° West 367 422 36,000  Level Kansas City Center
03:28PM 38.1736 -88.9931 315° West 373 429 36,000  Level Kansas City Center
03:29PM 38.2467 -89.0856 314° West 373 429 36,000  Level Kansas City Center
03:30PM 38.3175 -89.1783 315° West 373 429 36,000  Level Kansas City Center
03:31PM 38.3928 -89.2736 314° West 373 429 36,000  Level Kansas City Center
03:32PM 38.4658 -89.3692 314° West 378 435 36,000  Level Kansas City Center
03:33PM 38.5386 -89.4650 316° Northwest 373 429 36,000  Level Kansas City Center
03:34PM 38.6133 -89.5581 315° West 379 436 36,000  Level Kansas City Center
03:35PM 38.6817 -89.6442 314° West 379 436 36,000  Level Kansas City Center
03:36PM 38.7611 -89.7506 313° West 384 442 36,000  Level Kansas City Center
03:37PM 38.8250 -89.8397 314° West 384 442 36,000  Level Kansas City Center
03:38PM 38.8997 -89.9389 313° West 384 442 36,000  Level Kansas City Center
03:39PM 38.9767 -90.0464 315° West 384 442 36,000  Level Kansas City Center
03:40PM 39.0447 -90.1331 313° West 384 442 36,000  Level Kansas City Center
03:41PM 39.1236 -90.2408 314° West 384 442 36,000  Level Kansas City Center
03:42PM 39.1914 -90.3306 313° West 384 442 36,000  Level Kansas City Center
03:43PM 39.2700 -90.4386 313° West 384 442 36,000  Level Kansas City Center
03:44PM 39.3400 -90.5367 315° West 384 442 36,000  Level Kansas City Center
03:45PM 39.4164 -90.6344 312° West 384 442 36,000  Level Kansas City Center
03:46PM 39.4883 -90.7383 313° West 384 442 36,000  Level Kansas City Center
03:47PM 39.5603 -90.8394 314° West 384 442 36,000  Level Kansas City Center
03:48PM 39.6364 -90.9406 316° Northwest 389 448 36,000  Level Kansas City Center
03:49PM 39.7142 -91.0394 313° West 389 448 36,000  Level Kansas City Center
03:50PM 39.7858 -91.1411 314° West 383 441 36,000  Level Kansas City Center
03:51PM 39.8639 -91.2456 311° West 383 441 36,000  Level Kansas City Center
03:52PM 39.9333 -91.3481 314° West 388 447 36,000  Level Kansas City Center
03:53PM 40.0089 -91.4503 313° West 383 441 36,000  Level Kansas City Center
03:54PM 40.0844 -91.5556 312° West 389 448 36,000  Level Kansas City Center
03:55PM 40.1556 -91.6583 314° West 389 448 36,000  Level Kansas City Center
03:56PM 40.2308 -91.7614 312° West 389 448 36,000 -240 Level Kansas City Center
03:57PM 40.3042 -91.8672 314° West 389 448 35,600 -720 Descending Kansas City Center
03:58PM 40.3814 -91.9733 312° West 389 448 34,600 -1,200 Descending Kansas City Center
03:59PM 40.4500 -92.0744 314° West 398 458 33,200 -1,620 Descending Kansas City Center
04:00PM 40.5272 -92.1808 313° West 404 465 31,400 -1,920 Descending Kansas City Center
04:01PM 40.6042 -92.2878 311° West 404 465 29,400 -2,400 Descending Kansas City Center
04:02PM 40.6956 -92.4256 313° West 399 459 26,300 -2,580 Descending Chicago Center
04:03PM 40.7639 -92.5219 312° West 381 438 23,900 -2,340 Descending Chicago Center
04:04PM 40.8258 -92.6128 315° West 370 426 21,700 -2,220 Descending Chicago Center
04:05PM 40.9464 -92.7750 312° West 381 438 18,300 -2,280 Descending Minneapolis Center
04:06PM 41.0136 -92.8731 317° Northwest 379 436 16,100 -2,280 Descending Minneapolis Center
04:07PM 41.0950 -92.9742 331° Northwest 343 395 13,800 -2,040 Descending Minneapolis Center
04:08PM 41.1764 -93.0342 327° Northwest 312 359 11,700 -1,980 Descending Minneapolis Center
04:09PM 41.2433 -93.0917 325° Northwest 280 322 9,700 -2,100 Descending Minneapolis Center
04:10PM 41.3058 -93.1492 318° Northwest 260 299 7,500 -2,100 Descending Minneapolis Center
04:11PM 41.3539 -93.2069 315° West 260 299 5,700 -1,740 Descending Minneapolis Center
04:13PM 41.4100 -93.2814 312° West 257 296 4,000 -900 Descending Minneapolis Center
04:13PM 41.4539 -93.3475 311° West 262 302 4,000  Level Minneapolis Center
04:14PM 41.5017 -93.4222 310° West 257 296 4,000  Level Minneapolis Center
04:16PM 41.5517 -93.5025 309° West 266 306 4,000  Level Minneapolis Center
04:17PM 41.6017 -93.5858 309° West 223 257 4,000  Level Minneapolis Center